Time;durP1;ratioP1;P1;durP2;ratioP2;P2;SDS_P1;SDS_P2;PMS_P1;PMS_P2;Temp;Humidity;BMP_temperature;BMP_pressure;BME280_temperature;BME280_humidity;BME280_pressure;Samples;Min_cycle;Max_cycle;Signal;HPM_P1;HPM_P2
2021/01/13 00:00:46;;;;;;;7.50;0.95;;;2.70;86.80;;;;;;5008924;28;20064;-65
2021/01/13 00:03:11;;;;;;;5.93;1.30;;;2.70;86.40;;;;;;5007624;28;20061;-65
2021/01/13 00:05:38;;;;;;;5.35;1.52;;;2.70;86.20;;;;;;5006837;28;20041;-65
2021/01/13 00:08:03;;;;;;;5.40;0.88;;;2.70;86.60;;;;;;5008216;28;20038;-65
2021/01/13 00:10:29;;;;;;;6.75;1.20;;;2.70;86.60;;;;;;5010869;28;20036;-65
2021/01/13 00:12:55;;;;;;;5.47;1.08;;;2.60;86.50;;;;;;5008047;28;20042;-65
2021/01/13 00:15:20;;;;;;;5.32;1.05;;;2.60;87.20;;;;;;5010204;28;20034;-64
2021/01/13 00:17:47;;;;;;;6.78;0.90;;;2.50;87.30;;;;;;5008631;28;20069;-65
2021/01/13 00:20:13;;;;;;;6.22;0.90;;;2.50;87.30;;;;;;5009682;28;20034;-62
2021/01/13 00:22:39;;;;;;;7.60;1.52;;;2.50;87.00;;;;;;5024626;28;20030;-66
2021/01/13 00:25:06;;;;;;;5.05;0.95;;;2.60;86.80;;;;;;5004506;28;20812;-64
2021/01/13 00:27:35;;;;;;;3.63;1.00;;;2.60;86.90;;;;;;5025533;28;20805;-64
2021/01/13 00:30:01;;;;;;;2.63;1.10;;;2.60;86.70;;;;;;5007475;28;20129;-63
2021/01/13 00:32:27;;;;;;;8.43;1.13;;;2.60;86.60;;;;;;5010885;28;20131;-63
2021/01/13 00:34:52;;;;;;;1.60;0.68;;;2.60;86.80;;;;;;5005613;28;20506;-63
2021/01/13 00:37:18;;;;;;;7.22;1.23;;;2.60;86.60;;;;;;5014828;28;20841;-64
2021/01/13 00:39:44;;;;;;;7.65;1.85;;;2.60;86.40;;;;;;5010351;28;20035;-64
2021/01/13 00:42:09;;;;;;;6.25;0.98;;;2.60;86.50;;;;;;5011066;28;20044;-74
2021/01/13 00:44:35;;;;;;;5.35;1.05;;;2.60;86.40;;;;;;5012011;28;20197;-64
2021/01/13 00:47:01;;;;;;;3.67;1.10;;;2.60;86.40;;;;;;5009628;28;20080;-64
2021/01/13 00:49:27;;;;;;;2.97;0.73;;;2.50;86.90;;;;;;5031420;28;20136;-64
2021/01/13 00:51:53;;;;;;;8.43;1.17;;;2.60;87.10;;;;;;5015545;28;20029;-64
2021/01/13 00:54:18;;;;;;;4.78;0.80;;;2.50;87.10;;;;;;5013616;28;20033;-64
2021/01/13 00:56:47;;;;;;;5.32;1.08;;;2.60;86.90;;;;;;5012094;28;20036;-64
2021/01/13 00:59:13;;;;;;;3.22;1.10;;;2.60;86.90;;;;;;5012127;28;20033;-65
2021/01/13 01:01:41;;;;;;;4.80;1.00;;;2.60;86.90;;;;;;5011708;28;20030;-64
2021/01/13 01:04:07;;;;;;;3.63;1.08;;;2.60;87.40;;;;;;5013491;28;20481;-64
2021/01/13 01:06:33;;;;;;;11.52;1.60;;;2.60;87.00;;;;;;5024415;28;20042;-64
2021/01/13 01:08:59;;;;;;;2.50;0.90;;;2.60;87.40;;;;;;5006707;28;20045;-64
2021/01/13 01:11:36;;;;;;;8.52;1.27;;;2.70;87.00;;;;;;5010251;28;20048;-64
2021/01/13 01:14:06;;;;;;;2.78;1.23;;;2.80;87.10;;;;;;5013346;28;20044;-64
2021/01/13 01:16:37;;;;;;;7.68;1.52;;;2.70;86.20;;;;;;5011800;28;20133;-64
2021/01/13 01:19:05;;;;;;;3.35;1.13;;;2.70;87.20;;;;;;5007042;28;20080;-64
2021/01/13 01:21:31;;;;;;;5.75;1.23;;;2.70;87.30;;;;;;5009966;28;20044;-64
2021/01/13 01:23:56;;;;;;;7.55;1.60;;;2.80;87.40;;;;;;5007014;28;20038;-64
2021/01/13 01:26:22;;;;;;;6.63;1.83;;;2.90;86.90;;;;;;5009603;28;20037;-64
2021/01/13 01:28:48;;;;;;;6.22;1.48;;;2.90;86.40;;;;;;5007383;28;20037;-64
2021/01/13 01:31:14;;;;;;;4.05;1.08;;;2.90;86.40;;;;;;5016513;28;20048;-64
2021/01/13 01:33:40;;;;;;;2.97;1.50;;;2.90;86.90;;;;;;5011228;28;20859;-64
2021/01/13 01:36:06;;;;;;;5.18;1.25;;;3.00;86.80;;;;;;5012412;28;20041;-64
2021/01/13 01:38:32;;;;;;;10.93;1.70;;;3.00;86.40;;;;;;5010976;28;20040;-64
2021/01/13 01:41:07;;;;;;;6.55;1.65;;;2.90;86.80;;;;;;5013226;28;20033;-64
2021/01/13 01:43:32;;;;;;;7.97;1.77;;;3.00;87.00;;;;;;5011538;28;20041;-64
2021/01/13 01:45:58;;;;;;;3.05;1.60;;;2.90;86.60;;;;;;5005854;28;20111;-64
2021/01/13 01:48:35;;;;;;;7.80;1.85;;;2.90;86.80;;;;;;5009669;28;20155;-64
2021/01/13 01:51:02;;;;;;;9.20;1.83;;;3.00;87.10;;;;;;5027392;28;20040;-64
2021/01/13 01:53:36;;;;;;;5.50;1.30;;;3.10;86.60;;;;;;5009665;28;20034;-64
2021/01/13 01:56:11;;;;;;;12.35;2.03;;;3.10;86.40;;;;;;5027531;28;20045;-65
2021/01/13 01:58:38;;;;;;;6.65;1.85;;;3.10;86.40;;;;;;5011389;28;20044;-64
2021/01/13 02:01:05;;;;;;;6.88;1.77;;;3.10;86.00;;;;;;5006161;28;20033;-64
2021/01/13 02:03:47;;;;;;;13.68;2.53;;;3.20;85.80;;;;;;5009118;28;20120;-64
2021/01/13 02:06:17;;;;;;;8.02;1.52;;;3.20;85.90;;;;;;5007354;28;20041;-64
2021/01/13 02:08:44;;;;;;;7.57;2.20;;;3.20;85.30;;;;;;5007615;28;20045;-64
2021/01/13 02:11:18;;;;;;;3.58;1.85;;;3.20;85.30;;;;;;5006896;28;20057;-64
2021/01/13 02:13:45;;;;;;;5.93;1.98;;;3.20;84.70;;;;;;5006817;28;20409;-64
2021/01/13 02:16:13;;;;;;;12.30;2.42;;;3.20;85.90;;;;;;5006671;28;20042;-63
2021/01/13 02:18:48;;;;;;;6.10;1.55;;;3.20;85.80;;;;;;5007740;28;20691;-64
2021/01/13 02:21:18;;;;;;;9.88;1.95;;;3.20;85.30;;;;;;5015133;28;20040;-64
2021/01/13 02:23:52;;;;;;;9.55;2.17;;;3.20;84.80;;;;;;5006421;28;20064;-64
2021/01/13 02:26:57;;;;;;;6.50;1.52;;;3.30;85.00;;;;;;5007601;28;20688;-64
2021/01/13 02:29:33;;;;;;;9.70;1.60;;;3.30;84.80;;;;;;5013741;28;20479;-64
2021/01/13 02:32:08;;;;;;;;;;;3.30;84.80;;;;;;5012096;28;20041;-64
2021/01/13 02:34:57;;;;;;;6.75;1.77;;;3.40;84.50;;;;;;5009862;28;19919;-64
2021/01/13 02:37:36;;;;;;;10.32;2.22;;;3.40;84.30;;;;;;5008274;28;20476;-64
2021/01/13 02:40:08;;;;;;;5.38;2.08;;;3.40;84.00;;;;;;5011699;28;20041;-64
2021/01/13 02:42:38;;;;;;;5.20;1.73;;;3.40;84.40;;;;;;5010173;28;20084;-64
2021/01/13 02:45:10;;;;;;;5.13;1.38;;;3.40;84.30;;;;;;5005241;28;20044;-64
2021/01/13 02:47:57;;;;;;;9.80;1.80;;;3.40;84.60;;;;;;5007858;28;20569;-64
2021/01/13 02:50:25;;;;;;;12.18;2.20;;;3.50;84.20;;;;;;5008274;28;21097;-64
2021/01/13 02:53:13;;;;;;;7.57;1.67;;;3.40;84.60;;;;;;5005388;28;20037;-64
2021/01/13 02:55:55;;;;;;;7.65;1.58;;;3.40;84.70;;;;;;4986082;28;20096;-64
2021/01/13 02:58:30;;;;;;;10.55;1.50;;;3.50;84.70;;;;;;5009689;28;20148;-64
2021/01/13 03:00:56;;;;;;;13.35;2.55;;;3.50;84.80;;;;;;5010670;28;20037;-64
2021/01/13 03:03:22;;;;;;;4.10;1.60;;;3.40;84.60;;;;;;5009008;28;20131;-64
2021/01/13 03:05:48;;;;;;;8.38;1.83;;;3.30;85.20;;;;;;5010509;28;20216;-64
2021/01/13 03:08:15;;;;;;;5.78;1.55;;;3.30;85.20;;;;;;5025496;28;20038;-64
2021/01/13 03:10:42;;;;;;;11.02;2.15;;;3.30;85.50;;;;;;5010167;28;20045;-64
2021/01/13 03:13:08;;;;;;;7.60;1.73;;;3.30;85.70;;;;;;5010847;28;20038;-64
2021/01/13 03:15:36;;;;;;;10.88;1.92;;;3.30;85.70;;;;;;5009070;28;20049;-64
2021/01/13 03:18:05;;;;;;;3.80;1.60;;;3.30;85.30;;;;;;5011434;28;20037;-64
2021/01/13 03:20:49;;;;;;;13.02;2.22;;;3.30;85.40;;;;;;5010239;28;20557;-65
2021/01/13 03:23:33;;;;;;;8.80;1.80;;;3.30;85.30;;;;;;5006568;28;20555;-65
2021/01/13 03:26:01;;;;;;;6.45;1.65;;;3.30;85.60;;;;;;5010533;28;20037;-64
2021/01/13 03:28:41;;;;;;;7.80;1.52;;;3.30;85.50;;;;;;5007827;28;20049;-64
2021/01/13 03:31:10;;;;;;;6.35;1.38;;;3.40;85.10;;;;;;5010841;28;20029;-64
2021/01/13 03:33:52;;;;;;;7.43;1.50;;;3.40;85.30;;;;;;5012766;28;20164;-64
2021/01/13 03:36:37;;;;;;;4.53;1.63;;;3.40;85.60;;;;;;5006793;28;20037;-64
2021/01/13 03:39:07;;;;;;;7.90;2.38;;;3.40;85.30;;;;;;5011612;28;20045;-64
2021/01/13 03:41:53;;;;;;;7.38;1.73;;;3.50;85.20;;;;;;5010455;28;20129;-64
2021/01/13 03:44:28;;;;;;;7.07;1.97;;;3.50;84.80;;;;;;5001630;28;20060;-64
2021/01/13 03:47:16;;;;;;;11.55;1.83;;;3.50;85.60;;;;;;5011282;28;20045;-64
2021/01/13 03:50:12;;;;;;;9.07;2.63;;;3.40;85.20;;;;;;5025148;28;20042;-64
2021/01/13 03:52:59;;;;;;;7.47;1.77;;;3.40;85.10;;;;;;4997432;28;20137;-64
2021/01/13 03:55:28;;;;;;;6.53;1.63;;;3.30;85.70;;;;;;5022402;28;20042;-64
2021/01/13 03:57:56;;;;;;;7.18;1.50;;;3.30;86.10;;;;;;5010087;28;20044;-64
2021/01/13 04:00:40;;;;;;;8.95;1.48;;;3.20;85.90;;;;;;5008492;28;20794;-64
2021/01/13 04:03:18;;;;;;;8.60;1.52;;;3.40;85.50;;;;;;5005297;28;20140;-64
2021/01/13 04:06:06;;;;;;;7.88;1.40;;;3.40;84.80;;;;;;5005195;28;20037;-64
2021/01/13 04:08:44;;;;;;;8.52;1.80;;;3.30;84.90;;;;;;5013091;28;20504;-64
2021/01/13 04:11:14;;;;;;;6.95;1.67;;;3.30;85.10;;;;;;5005498;28;20084;-64
2021/01/13 04:13:41;;;;;;;11.32;2.15;;;3.40;84.60;;;;;;5006125;28;20037;-62
2021/01/13 04:16:09;;;;;;;5.20;1.45;;;3.40;84.50;;;;;;5004520;28;20461;-62
2021/01/13 04:18:36;;;;;;;9.95;1.40;;;3.50;84.10;;;;;;5006959;28;20375;-64
2021/01/13 04:21:02;;;;;;;3.85;1.58;;;3.50;84.10;;;;;;5004848;28;20037;-65
2021/01/13 04:23:29;;;;;;;9.30;2.22;;;3.50;83.80;;;;;;5012144;28;20107;-64
2021/01/13 04:25:55;;;;;;;6.22;1.90;;;3.60;83.60;;;;;;5004377;28;20038;-64
2021/01/13 04:28:21;;;;;;;9.60;1.98;;;3.60;83.50;;;;;;5006587;28;20076;-64
2021/01/13 04:30:46;;;;;;;9.25;1.67;;;3.70;83.30;;;;;;5020296;28;20818;-64
2021/01/13 04:33:12;;;;;;;5.00;1.73;;;3.70;82.80;;;;;;5005738;28;20030;-65
2021/01/13 04:35:38;;;;;;;5.50;1.60;;;3.70;82.60;;;;;;5020801;28;20041;-64
2021/01/13 04:38:04;;;;;;;10.90;2.30;;;3.70;82.50;;;;;;5003059;28;20026;-65
2021/01/13 04:40:31;;;;;;;5.80;1.83;;;3.60;82.70;;;;;;5007754;28;20032;-64
2021/01/13 04:43:04;;;;;;;11.80;2.60;;;3.60;83.00;;;;;;5004608;28;20030;-64
2021/01/13 04:45:43;;;;;;;8.35;1.60;;;3.50;83.20;;;;;;5011388;28;20052;-64
2021/01/13 04:48:11;;;;;;;8.27;1.70;;;3.50;83.30;;;;;;5008502;28;20033;-64
2021/01/13 04:50:48;;;;;;;5.90;1.67;;;3.50;83.50;;;;;;5010426;28;20057;-64
2021/01/13 04:53:19;;;;;;;8.13;2.08;;;3.50;83.20;;;;;;5009338;28;20037;-64
2021/01/13 04:55:45;;;;;;;6.25;1.58;;;3.50;82.80;;;;;;5022796;28;20041;-64
2021/01/13 04:58:58;;;;;;;5.00;1.40;;;3.40;82.80;;;;;;5009015;28;20851;-64
2021/01/13 05:02:03;;;;;;;6.70;1.60;;;3.40;83.00;;;;;;5014415;28;20049;-64
2021/01/13 05:04:56;;;;;;;2.40;1.45;;;3.40;82.70;;;;;;5011081;28;20044;-64
2021/01/13 05:07:33;;;;;;;7.70;1.35;;;3.30;83.10;;;;;;5009688;28;20038;-64
2021/01/13 05:10:09;;;;;;;6.80;1.58;;;3.20;83.50;;;;;;5007293;28;20022;-64
2021/01/13 05:12:46;;;;;;;5.60;1.63;;;3.20;84.00;;;;;;5012627;28;20033;-64
2021/01/13 05:15:17;;;;;;;5.53;1.63;;;3.10;84.20;;;;;;5008316;28;20038;-64
2021/01/13 05:17:56;;;;;;;7.22;1.77;;;3.10;84.20;;;;;;5008635;28;20069;-64
2021/01/13 05:20:24;;;;;;;7.53;2.35;;;3.00;84.70;;;;;;5009856;28;20029;-64
2021/01/13 05:22:55;;;;;;;4.60;1.83;;;3.00;85.40;;;;;;5007388;28;20025;-64
2021/01/13 05:25:39;;;;;;;7.47;2.33;;;3.00;85.10;;;;;;5009498;28;20961;-64
2021/01/13 05:28:24;;;;;;;5.90;1.90;;;3.00;85.40;;;;;;5013137;28;20121;-64
2021/01/13 05:30:58;;;;;;;4.53;1.67;;;2.90;85.60;;;;;;5016422;28;20116;-64
2021/01/13 05:33:26;;;;;;;10.40;2.33;;;3.00;86.50;;;;;;5010582;28;20045;-64
2021/01/13 05:35:57;;;;;;;6.47;2.53;;;3.00;85.10;;;;;;5012581;28;20041;-64
2021/01/13 05:38:38;;;;;;;6.57;1.92;;;3.00;85.90;;;;;;5010496;28;20913;-64
2021/01/13 05:41:12;;;;;;;7.85;2.10;;;3.00;86.00;;;;;;5013649;28;20797;-64
2021/01/13 05:43:45;;;;;;;12.75;2.20;;;3.00;85.50;;;;;;5011267;28;20037;-64
2021/01/13 05:46:13;;;;;;;4.32;1.60;;;2.90;85.60;;;;;;5012230;28;20040;-64
2021/01/13 05:48:40;;;;;;;7.60;2.58;;;3.00;85.50;;;;;;5010939;28;20041;-64
2021/01/13 05:51:06;;;;;;;8.70;2.42;;;2.90;85.40;;;;;;5012734;28;20144;-64
2021/01/13 05:53:33;;;;;;;8.18;1.95;;;3.00;85.20;;;;;;5010263;28;20057;-64
2021/01/13 05:56:02;;;;;;;4.60;1.55;;;2.90;85.20;;;;;;5012673;28;20132;-64
2021/01/13 05:58:29;;;;;;;7.68;2.00;;;3.00;85.40;;;;;;5009857;28;20048;-64
2021/01/13 06:00:59;;;;;;;7.07;2.22;;;3.00;85.30;;;;;;5013292;28;20048;-64
2021/01/13 06:03:29;;;;;;;5.13;2.00;;;3.00;85.40;;;;;;5010258;28;20736;-62
2021/01/13 06:06:01;;;;;;;10.45;2.60;;;3.00;85.20;;;;;;5013131;28;20846;-64
2021/01/13 06:08:30;;;;;;;10.30;2.78;;;3.00;85.20;;;;;;5009667;28;20088;-64
2021/01/13 06:11:02;;;;;;;6.22;1.88;;;3.00;84.90;;;;;;5013310;28;20041;-64
2021/01/13 06:13:33;;;;;;;9.05;2.30;;;2.90;85.50;;;;;;5011979;28;20556;-64
2021/01/13 06:16:01;;;;;;;11.50;2.50;;;2.90;85.30;;;;;;5022887;28;20087;-65
2021/01/13 06:18:28;;;;;;;6.93;2.53;;;2.90;85.40;;;;;;5016069;28;20040;-64
2021/01/13 06:20:57;;;;;;;7.97;2.30;;;2.90;85.60;;;;;;5016148;28;20038;-64
2021/01/13 06:23:25;;;;;;;7.43;1.98;;;3.10;85.20;;;;;;5021603;28;20071;-64
2021/01/13 06:25:56;;;;;;;7.50;2.90;;;3.10;84.80;;;;;;5024082;28;20029;-64
2021/01/13 06:28:24;;;;;;;8.52;2.85;;;3.20;84.90;;;;;;5028436;28;20036;-64
2021/01/13 06:31:05;;;;;;;15.38;3.08;;;3.30;84.50;;;;;;5015944;28;20034;-65
2021/01/13 06:33:46;;;;;;;10.88;3.03;;;3.30;84.40;;;;;;5020669;28;20037;-65
2021/01/13 06:36:50;;;;;;;9.35;2.55;;;3.30;84.10;;;;;;5017107;28;20040;-64
2021/01/13 06:39:16;;;;;;;11.38;3.05;;;3.30;84.30;;;;;;4979430;28;20091;-62
2021/01/13 06:41:46;;;;;;;7.85;2.28;;;3.30;84.50;;;;;;4979526;28;20581;-64
2021/01/13 06:44:13;;;;;;;11.93;2.95;;;3.30;84.50;;;;;;5006405;28;20041;-64
2021/01/13 06:46:39;;;;;;;10.05;2.47;;;3.40;84.40;;;;;;5020451;28;20064;-64
2021/01/13 06:49:23;;;;;;;10.18;2.20;;;3.40;84.20;;;;;;5020185;28;20578;-65
2021/01/13 06:51:52;;;;;;;7.22;2.38;;;3.40;84.50;;;;;;5031956;28;20065;-64
2021/01/13 06:54:19;;;;;;;11.02;2.38;;;3.30;84.00;;;;;;5021962;28;20656;-64
2021/01/13 06:56:56;;;;;;;6.38;2.30;;;3.40;84.70;;;;;;5020103;28;20103;-64
2021/01/13 06:59:23;;;;;;;8.45;2.28;;;3.40;83.80;;;;;;5008681;28;20026;-64
2021/01/13 07:01:54;;;;;;;8.77;2.50;;;3.40;84.00;;;;;;5006406;28;20121;-64
2021/01/13 07:04:21;;;;;;;8.43;2.00;;;3.50;84.30;;;;;;5007528;28;20065;-65
2021/01/13 07:07:07;;;;;;;9.27;2.95;;;3.50;83.80;;;;;;5020445;28;20079;-64
2021/01/13 07:09:37;;;;;;;7.85;2.28;;;3.50;83.70;;;;;;5015735;28;20043;-64
2021/01/13 07:12:14;;;;;;;7.40;2.13;;;3.50;83.50;;;;;;5030804;28;20049;-64
2021/01/13 07:14:42;;;;;;;5.60;2.38;;;3.60;83.60;;;;;;5018255;28;20095;-64
2021/01/13 07:17:10;;;;;;;7.65;2.92;;;3.60;83.60;;;;;;5034052;28;20160;-64
2021/01/13 07:19:37;;;;;;;7.53;1.85;;;3.60;83.20;;;;;;5029091;28;20835;-64
2021/01/13 07:22:04;;;;;;;6.25;1.88;;;3.60;83.50;;;;;;5020914;28;20033;-64
2021/01/13 07:24:31;;;;;;;7.25;1.80;;;3.70;82.90;;;;;;5020129;28;20033;-64
2021/01/13 07:26:57;;;;;;;6.38;1.85;;;3.70;82.90;;;;;;5033931;28;20034;-64
2021/01/13 07:29:27;;;;;;;4.45;1.67;;;3.70;83.30;;;;;;5016648;28;20799;-64
2021/01/13 07:31:57;;;;;;;12.38;1.67;;;3.80;82.70;;;;;;5009948;28;20041;-65
2021/01/13 07:34:31;;;;;;;8.23;1.55;;;3.70;82.80;;;;;;5015538;28;20057;-65
2021/01/13 07:37:05;;;;;;;7.20;1.85;;;3.90;82.80;;;;;;5009790;28;20757;-65
2021/01/13 07:39:43;;;;;;;7.15;1.73;;;3.80;82.30;;;;;;5009307;28;20133;-65
2021/01/13 07:42:27;;;;;;;6.22;1.60;;;3.90;82.40;;;;;;5025322;28;20167;-65
2021/01/13 07:45:01;;;;;;;9.68;2.00;;;3.90;82.10;;;;;;5011838;28;20108;-69
2021/01/13 07:47:29;;;;;;;10.65;2.20;;;3.90;82.30;;;;;;5011251;28;20048;-65
2021/01/13 07:50:15;;;;;;;7.07;1.67;;;3.90;82.60;;;;;;5010457;28;20430;-66
2021/01/13 07:52:45;;;;;;;11.52;2.33;;;4.00;81.90;;;;;;5022891;28;20777;-65
2021/01/13 07:55:22;;;;;;;10.05;2.17;;;4.00;82.10;;;;;;5011626;28;20042;-65
2021/01/13 07:58:01;;;;;;;13.25;1.95;;;4.00;82.30;;;;;;5023262;28;20137;-66
2021/01/13 08:00:33;;;;;;;11.18;2.42;;;4.00;81.80;;;;;;5032865;28;20050;-65
2021/01/13 08:03:18;;;;;;;3.47;1.98;;;4.00;81.90;;;;;;5015102;28;20486;-65
2021/01/13 08:06:05;;;;;;;11.75;3.08;;;4.00;81.80;;;;;;5019323;28;20153;-65
2021/01/13 08:09:08;;;;;;;11.32;3.35;;;4.00;81.90;;;;;;5016702;28;20025;-65
2021/01/13 08:12:13;;;;;;;5.88;1.55;;;4.00;82.00;;;;;;5016091;28;20064;-65
2021/01/13 08:14:59;;;;;;;11.05;2.03;;;4.00;82.20;;;;;;5036348;28;20042;-65
2021/01/13 08:18:12;;;;;;;9.52;2.25;;;4.10;81.90;;;;;;5015545;28;20048;-63
2021/01/13 08:21:01;;;;;;;16.08;1.70;;;4.10;81.10;;;;;;5012997;28;20879;-64
2021/01/13 08:23:41;;;;;;;9.18;1.83;;;4.10;81.90;;;;;;5029706;28;20065;-66
2021/01/13 08:26:08;;;;;;;8.43;1.48;;;4.00;81.80;;;;;;5017563;28;20125;-65
2021/01/13 08:28:39;;;;;;;7.95;1.65;;;4.00;81.70;;;;;;5017145;28;20046;-65
2021/01/13 08:31:07;;;;;;;7.03;1.42;;;4.10;81.70;;;;;;5026014;28;20035;-65
2021/01/13 08:33:38;;;;;;;8.30;1.58;;;4.20;81.60;;;;;;5028599;28;20067;-65
2021/01/13 08:36:14;;;;;;;9.73;1.80;;;4.30;81.60;;;;;;5024535;28;20034;-65
2021/01/13 08:39:09;;;;;;;2.38;1.15;;;4.40;80.80;;;;;;5025669;28;20040;-65
2021/01/13 08:41:36;;;;;;;6.72;1.42;;;4.40;80.00;;;;;;5018489;28;20038;-65
2021/01/13 08:44:11;;;;;;;5.30;1.40;;;4.50;79.80;;;;;;5030868;28;20047;-70
2021/01/13 08:46:44;;;;;;;9.02;2.35;;;4.60;80.20;;;;;;5019787;28;20039;-65
2021/01/13 08:49:19;;;;;;;9.98;2.33;;;4.60;79.90;;;;;;5027168;28;20036;-65
2021/01/13 08:52:15;;;;;;;3.35;1.40;;;4.70;79.80;;;;;;5033494;28;20559;-64
2021/01/13 08:54:55;;;;;;;7.63;1.75;;;4.70;79.10;;;;;;5036179;28;20040;-65
2021/01/13 08:57:25;;;;;;;6.20;1.50;;;4.70;79.20;;;;;;5018382;28;20654;-67
2021/01/13 08:59:54;;;;;;;8.93;1.50;;;4.70;79.20;;;;;;5025700;28;20490;-65
2021/01/13 09:02:22;;;;;;;5.78;1.48;;;4.70;78.80;;;;;;5030958;28;20084;-64
2021/01/13 09:04:49;;;;;;;4.70;1.20;;;4.70;79.00;;;;;;5021853;28;20287;-64
2021/01/13 09:07:26;;;;;;;6.07;2.30;;;4.60;79.40;;;;;;5027062;28;20029;-64
2021/01/13 09:10:04;;;;;;;2.75;1.35;;;4.70;79.70;;;;;;5014774;28;20123;-64
2021/01/13 09:12:36;;;;;;;4.03;1.10;;;4.70;79.20;;;;;;5025805;28;20545;-64
2021/01/13 09:15:07;;;;;;;11.45;3.55;;;4.70;79.60;;;;;;5015972;28;20048;-64
2021/01/13 09:17:38;;;;;;;2.95;1.20;;;4.70;79.00;;;;;;5011914;28;20087;-65
2021/01/13 09:20:05;;;;;;;9.60;1.73;;;4.80;79.20;;;;;;5007044;28;20774;-64
2021/01/13 09:22:51;;;;;;;21.98;6.60;;;4.70;79.10;;;;;;5010241;28;20892;-64
2021/01/13 09:25:22;;;;;;;18.58;6.30;;;4.80;79.50;;;;;;5023153;28;20045;-64
2021/01/13 09:27:57;;;;;;;6.22;3.10;;;4.80;79.30;;;;;;5023929;28;20737;-64
2021/01/13 09:30:26;;;;;;;11.52;1.48;;;4.80;79.40;;;;;;5019313;28;20072;-64
2021/01/13 09:32:55;;;;;;;5.28;1.95;;;4.90;79.30;;;;;;5014055;28;20029;-64
2021/01/13 09:35:30;;;;;;;6.80;1.67;;;5.00;79.00;;;;;;5015369;28;20041;-64
2021/01/13 09:37:58;;;;;;;5.28;1.48;;;5.10;78.50;;;;;;5023929;28;20044;-64
2021/01/13 09:40:46;;;;;;;2.42;1.05;;;5.00;78.50;;;;;;5024295;28;20036;-64
2021/01/13 09:43:38;;;;;;;7.97;1.95;;;5.00;78.70;;;;;;5033533;28;20030;-64
2021/01/13 09:46:24;;;;;;;8.55;1.80;;;5.00;78.50;;;;;;5027933;28;20041;-64
2021/01/13 09:48:56;;;;;;;6.15;1.70;;;5.00;78.90;;;;;;5015934;28;20033;-64
2021/01/13 09:51:22;;;;;;;7.63;2.72;;;5.00;79.00;;;;;;5019333;28;20033;-64
2021/01/13 09:53:50;;;;;;;7.45;2.35;;;5.00;78.90;;;;;;5036528;28;20699;-64
2021/01/13 09:56:16;;;;;;;4.38;2.30;;;5.00;78.50;;;;;;5020888;28;20041;-65
2021/01/13 09:58:47;;;;;;;4.13;1.70;;;5.00;78.80;;;;;;5028937;28;20048;-64
2021/01/13 10:01:19;;;;;;;5.28;1.50;;;5.00;78.50;;;;;;5021190;28;20043;-64
2021/01/13 10:03:55;;;;;;;5.10;2.10;;;5.00;79.50;;;;;;5031409;28;20033;-65
2021/01/13 10:06:29;;;;;;;5.30;2.17;;;5.10;78.90;;;;;;5014822;28;20083;-65
2021/01/13 10:09:11;;;;;;;4.18;1.90;;;5.00;78.10;;;;;;5014720;28;20045;-64
2021/01/13 10:11:38;;;;;;;8.50;2.28;;;5.00;78.80;;;;;;5030483;28;20041;-64
2021/01/13 10:14:05;;;;;;;4.03;1.52;;;5.10;79.10;;;;;;5016162;28;20548;-64
2021/01/13 10:16:31;;;;;;;4.65;1.63;;;5.10;78.60;;;;;;5018872;28;20040;-64
2021/01/13 10:19:00;;;;;;;4.53;1.80;;;5.20;77.90;;;;;;5024081;28;20807;-64
2021/01/13 10:21:37;;;;;;;7.53;1.35;;;5.30;78.00;;;;;;5029964;28;20124;-64
2021/01/13 10:24:08;;;;;;;3.58;1.35;;;5.30;77.40;;;;;;5023909;28;20041;-64
2021/01/13 10:26:48;;;;;;;7.50;1.70;;;5.20;77.60;;;;;;5020307;28;20044;-64
2021/01/13 10:29:21;;;;;;;4.40;1.30;;;5.30;77.80;;;;;;5028814;28;20039;-64
2021/01/13 10:31:48;;;;;;;4.93;1.35;;;5.30;77.30;;;;;;5022415;28;20137;-64
2021/01/13 10:34:14;;;;;;;4.05;1.42;;;5.40;77.00;;;;;;5024784;28;20048;-64
2021/01/13 10:36:49;;;;;;;4.35;1.25;;;5.40;76.60;;;;;;5028047;28;20030;-64
2021/01/13 10:39:21;;;;;;;2.50;1.30;;;5.40;77.10;;;;;;5025756;28;20192;-64
2021/01/13 10:41:52;;;;;;;3.75;1.60;;;5.30;77.40;;;;;;5024454;28;20608;-64
2021/01/13 10:44:19;;;;;;;6.50;1.60;;;5.20;77.50;;;;;;5015214;28;20102;-64
2021/01/13 10:46:49;;;;;;;5.70;3.25;;;5.10;78.40;;;;;;5017332;28;20072;-64
2021/01/13 10:49:34;;;;;;;3.50;1.25;;;5.10;78.60;;;;;;5032523;28;20081;-65
2021/01/13 10:52:20;;;;;;;5.25;1.65;;;5.10;78.80;;;;;;5017524;28;20076;-65
2021/01/13 10:54:50;;;;;;;5.72;1.52;;;5.00;78.20;;;;;;5011384;28;20525;-64
2021/01/13 10:57:36;;;;;;;8.18;2.00;;;5.20;78.90;;;;;;5015378;28;20038;-64
2021/01/13 11:00:10;;;;;;;5.60;1.30;;;5.40;78.80;;;;;;5021324;28;20049;-64
2021/01/13 11:02:37;;;;;;;5.70;1.58;;;5.50;77.00;;;;;;5022573;28;20034;-68
2021/01/13 11:05:03;;;;;;;10.63;1.83;;;5.30;76.70;;;;;;5023242;28;20747;-68
2021/01/13 11:07:40;;;;;;;3.92;1.42;;;5.40;76.80;;;;;;5024823;28;20035;-70
2021/01/13 11:10:11;;;;;;;3.55;1.10;;;5.30;76.70;;;;;;5023044;28;20037;-67
2021/01/13 11:12:38;;;;;;;3.28;1.27;;;5.40;77.30;;;;;;5023130;28;20033;-66
2021/01/13 11:15:05;;;;;;;4.10;1.48;;;5.40;76.30;;;;;;5030246;28;20483;-68
2021/01/13 11:17:32;;;;;;;5.57;1.63;;;5.40;76.50;;;;;;5021415;28;20068;-68
2021/01/13 11:20:00;;;;;;;4.85;1.80;;;5.50;76.30;;;;;;5014011;28;20038;-68
2021/01/13 11:22:44;;;;;;;3.83;2.10;;;5.50;75.80;;;;;;5021200;28;20029;-66
2021/01/13 11:25:36;;;;;;;9.13;2.33;;;5.50;76.30;;;;;;5003768;28;20134;-67
2021/01/13 11:28:02;;;;;;;8.05;2.40;;;5.50;76.00;;;;;;5012313;28;20095;-67
2021/01/13 11:30:29;;;;;;;5.70;2.10;;;5.60;75.90;;;;;;5008290;28;20037;-68
2021/01/13 11:32:57;;;;;;;8.18;1.48;;;5.60;75.40;;;;;;5025406;28;20033;-68
2021/01/13 11:35:43;;;;;;;5.85;1.27;;;5.60;75.60;;;;;;5023962;28;20547;-73
2021/01/13 11:38:34;;;;;;;6.05;1.13;;;5.50;76.70;;;;;;5015671;28;20869;-68
2021/01/13 11:41:35;;;;;;;4.30;1.45;;;5.40;76.20;;;;;;5013778;28;20037;-65
2021/01/13 11:44:22;;;;;;;7.55;2.53;;;5.50;76.70;;;;;;5011654;28;20057;-65
2021/01/13 11:47:18;;;;;;;4.32;2.33;;;5.40;76.70;;;;;;5017708;28;20123;-66
2021/01/13 11:49:50;;;;;;;5.72;1.77;;;5.40;76.70;;;;;;5014247;28;20053;-66
2021/01/13 11:52:17;;;;;;;5.85;1.58;;;5.40;77.00;;;;;;5019445;28;20688;-66
2021/01/13 11:54:52;;;;;;;6.05;1.63;;;5.40;78.00;;;;;;5015442;28;20042;-66
2021/01/13 11:57:34;;;;;;;7.95;1.77;;;5.40;77.60;;;;;;5027265;28;20124;-66
2021/01/13 12:00:15;;;;;;;6.20;1.40;;;5.40;77.70;;;;;;5022148;28;20393;-66
2021/01/13 12:02:45;;;;;;;3.67;1.58;;;5.50;78.30;;;;;;5023214;28;20080;-66
2021/01/13 12:05:23;;;;;;;7.78;1.83;;;5.40;78.50;;;;;;5037921;28;20548;-67
2021/01/13 12:08:06;;;;;;;7.70;2.45;;;5.50;77.60;;;;;;5027005;28;20026;-64
2021/01/13 12:10:39;;;;;;;5.68;1.55;;;5.60;77.20;;;;;;5017483;28;20029;-64
2021/01/13 12:13:27;;;;;;;6.90;1.88;;;5.70;77.30;;;;;;5024243;28;20108;-67
2021/01/13 12:15:54;;;;;;;10.98;1.88;;;5.70;76.70;;;;;;5014078;28;20029;-67
2021/01/13 12:18:27;;;;;;;8.98;2.20;;;5.70;77.40;;;;;;5030006;28;20035;-66
2021/01/13 12:20:58;;;;;;;7.68;1.60;;;5.60;76.50;;;;;;5007366;28;20088;-67
2021/01/13 12:23:37;;;;;;;6.43;1.55;;;5.60;77.90;;;;;;5024034;28;20036;-67
2021/01/13 12:26:19;;;;;;;7.38;2.10;;;5.60;77.20;;;;;;5018843;28;20064;-66
2021/01/13 12:28:50;;;;;;;8.23;2.13;;;5.50;77.30;;;;;;5025141;28;20110;-67
2021/01/13 12:31:18;;;;;;;5.95;1.60;;;5.50;78.00;;;;;;5020074;28;20477;-67
2021/01/13 12:33:57;;;;;;;3.80;1.73;;;5.50;77.00;;;;;;5034982;28;20498;-64
2021/01/13 12:36:29;;;;;;;6.47;1.73;;;5.50;78.40;;;;;;5018017;28;20123;-67
2021/01/13 12:38:55;;;;;;;6.47;1.50;;;5.60;78.20;;;;;;5016809;28;20557;-67
2021/01/13 12:41:23;;;;;;;6.43;1.75;;;5.70;78.00;;;;;;5028474;28;20033;-66
2021/01/13 12:43:49;;;;;;;8.40;2.05;;;5.80;77.80;;;;;;5020872;28;20040;-64
2021/01/13 12:46:46;;;;;;;5.82;1.92;;;5.80;77.40;;;;;;5026758;28;20033;-67
2021/01/13 12:49:12;;;;;;;7.43;2.38;;;5.80;76.20;;;;;;5012492;28;20029;-67
2021/01/13 12:51:38;;;;;;;9.43;4.50;;;5.70;77.20;;;;;;5016030;28;20441;-64
2021/01/13 12:54:04;;;;;;;5.78;1.80;;;5.60;77.00;;;;;;5020335;28;20029;-67
2021/01/13 12:56:31;;;;;;;12.45;4.07;;;5.40;77.90;;;;;;5022904;28;20121;-66
2021/01/13 12:58:58;;;;;;;8.30;2.10;;;5.40;78.50;;;;;;5017864;28;20530;-66
2021/01/13 13:01:25;;;;;;;7.40;2.00;;;5.40;77.50;;;;;;5023541;28;20038;-64
2021/01/13 13:03:51;;;;;;;7.43;2.55;;;5.40;78.10;;;;;;5029832;28;20545;-66
2021/01/13 13:06:32;;;;;;;10.27;2.25;;;5.50;77.70;;;;;;5032492;28;20037;-67
2021/01/13 13:08:59;;;;;;;5.82;1.60;;;5.60;76.60;;;;;;5020388;28;20068;-66
2021/01/13 13:11:24;;;;;;;10.30;3.15;;;5.50;77.20;;;;;;5030427;28;20037;-66
2021/01/13 13:13:51;;;;;;;6.68;2.00;;;5.30;77.10;;;;;;5026943;28;20032;-66
2021/01/13 13:16:19;;;;;;;8.65;1.73;;;5.20;78.20;;;;;;5023357;28;20441;-68
2021/01/13 13:18:45;;;;;;;3.88;1.60;;;5.20;78.00;;;;;;5016688;28;20037;-66
2021/01/13 13:21:12;;;;;;;3.17;1.45;;;5.20;78.40;;;;;;5033251;28;20041;-67
2021/01/13 13:23:42;;;;;;;10.18;5.28;;;5.20;77.90;;;;;;5025096;28;20477;-67
2021/01/13 13:26:09;;;;;;;8.98;1.58;;;5.30;78.50;;;;;;5023611;28;20029;-66